Presidente Olegario, Brazil
Current Conditions -  °F | °C
As of 1:22 AM on Thursday 23 Oct 2014 (Local Time) from SBUL Reporting Station
Scattered Clouds Scattered Clouds  
Wind Chill: 22°   Ceiling: Unl
Heat Index: 22°   Visibility: 6mi
Dew Point: 16°   Wind: 17mph
Humidity: 69%   Direction: 60°ENE
Pressure: 30.09"   Gusts: NA
Location:  18.42°S, 46.42°W
Report Text: SBUL 230322Z 06015KT 9999 FEW040 SCT100 22/16 Q1019 RETS
Loading
Personal Weather Stations






























Interactive Weather Map
Tropical Storm Tracking
New forecast layout! Learn more

10-Day Weather Forecast

Advertisements
Track Severe Weather on mobile